createdAt,value
2023-04-24T00:00:46.100Z,95.52
2023-04-24T00:03:13.951Z,95.97
2023-04-24T00:05:42.181Z,95.13
2023-04-24T00:08:09.729Z,95.72
2023-04-24T00:10:38.479Z,96.32
2023-04-24T00:13:06.143Z,97.01
2023-04-24T00:15:33.954Z,97.20
2023-04-24T00:18:02.210Z,99.25
2023-04-24T00:20:30.360Z,99.40
2023-04-24T00:22:57.749Z,97.37
2023-04-24T00:25:25.184Z,100.00
2023-04-24T00:27:53.929Z,100.00
2023-04-24T00:30:21.490Z,100.00
2023-04-24T00:32:48.937Z,100.00
2023-04-24T00:35:16.569Z,100.00
2023-04-24T00:37:43.988Z,99.78
2023-04-24T00:40:12.564Z,98.48
2023-04-24T00:42:41.476Z,99.31
2023-04-24T00:45:11.066Z,99.33
2023-04-24T00:47:39.389Z,99.00
2023-04-24T00:50:08.298Z,98.71
2023-04-24T00:52:36.034Z,99.08
2023-04-24T00:55:06.676Z,99.91
2023-04-24T00:57:34.092Z,99.75
2023-04-24T01:00:01.499Z,98.54
2023-04-24T01:02:30.504Z,97.36
2023-04-24T01:04:58.139Z,98.09
2023-04-24T01:07:26.680Z,97.83
2023-04-24T01:09:54.141Z,98.09
2023-04-24T01:12:21.670Z,98.52
2023-04-24T01:14:49.084Z,99.80
2023-04-24T01:17:16.599Z,99.54
2023-04-24T01:19:46.210Z,100.00
2023-04-24T01:22:15.974Z,100.00
2023-04-24T01:24:43.714Z,100.00
2023-04-24T01:27:12.526Z,99.60
2023-04-24T01:29:40.151Z,99.44
2023-04-24T01:32:08.211Z,100.00
2023-04-24T01:34:36.128Z,100.00
2023-04-24T01:37:03.619Z,100.00
2023-04-24T01:39:32.358Z,99.41
2023-04-24T01:41:59.931Z,98.04
2023-04-24T01:44:28.107Z,98.83
2023-04-24T01:46:57.155Z,99.36
2023-04-24T01:49:24.661Z,97.45
2023-04-24T01:51:52.041Z,96.84
2023-04-24T01:54:19.483Z,96.88
2023-04-24T01:56:48.594Z,96.13
2023-04-24T01:59:18.851Z,95.95
2023-04-24T02:01:46.304Z,94.84
2023-04-24T02:04:14.641Z,95.90
2023-04-24T02:06:42.138Z,98.16
2023-04-24T02:09:09.818Z,100.00
2023-04-24T02:11:37.188Z,99.58
2023-04-24T02:14:05.919Z,99.37
2023-04-24T02:16:34.800Z,98.34
2023-04-24T02:19:02.255Z,97.57
2023-04-24T02:21:29.723Z,96.97
2023-04-24T02:23:57.102Z,97.06
2023-04-24T02:26:24.928Z,96.35
2023-04-24T02:28:52.391Z,95.81
2023-04-24T02:31:21.168Z,97.54
2023-04-24T02:33:48.624Z,98.52
2023-04-24T02:36:16.023Z,100.00
2023-04-24T02:38:43.468Z,100.00
2023-04-24T02:41:10.902Z,99.05
2023-04-24T02:43:38.326Z,100.00
2023-04-24T02:46:05.897Z,100.00
2023-04-24T02:48:34.648Z,100.00
2023-04-24T02:51:02.088Z,100.00
2023-04-24T02:53:30.820Z,99.40
2023-04-24T02:55:58.251Z,99.36
2023-04-24T02:58:25.994Z,100.00
2023-04-24T03:00:55.538Z,100.00
2023-04-24T03:03:23.185Z,100.00
2023-04-24T03:05:52.129Z,99.78
2023-04-24T03:08:19.546Z,100.00
2023-04-24T03:10:48.300Z,99.86
2023-04-24T03:13:16.997Z,100.00
2023-04-24T03:15:44.440Z,99.40
2023-04-24T03:18:11.955Z,99.29
2023-04-24T03:20:39.351Z,99.08
2023-04-24T03:23:08.043Z,100.00
2023-04-24T03:25:35.513Z,98.90
2023-04-24T03:28:02.875Z,98.31
2023-04-24T03:30:30.457Z,99.83
2023-04-24T03:32:57.945Z,98.71
2023-04-24T03:35:25.588Z,100.00
2023-04-24T03:37:52.986Z,99.46
2023-04-24T03:40:22.088Z,98.48
2023-04-24T03:42:49.457Z,100.00
2023-04-24T03:45:16.857Z,99.73
2023-04-24T03:47:44.277Z,99.11
2023-04-24T03:50:13.021Z,99.47
2023-04-24T03:52:40.587Z,100.00
2023-04-24T03:55:09.072Z,100.00
2023-04-24T03:57:37.764Z,100.00
2023-04-24T04:00:07.208Z,100.00
2023-04-24T04:02:34.721Z,100.00
2023-04-24T04:05:03.125Z,99.19
2023-04-24T04:07:30.881Z,99.52
2023-04-24T04:09:58.333Z,100.00
2023-04-24T04:12:25.769Z,99.40
2023-04-24T04:14:54.473Z,98.59
2023-04-24T04:17:21.825Z,97.20
2023-04-24T04:19:49.173Z,98.55
2023-04-24T04:22:16.580Z,96.41
2023-04-24T04:24:44.225Z,95.61
2023-04-24T04:27:11.854Z,96.10
2023-04-24T04:29:41.110Z,96.61
2023-04-24T04:32:10.163Z,97.31
2023-04-24T04:34:38.589Z,96.08
2023-04-24T04:37:06.851Z,96.95
2023-04-24T04:39:34.385Z,96.15
2023-04-24T04:42:02.004Z,97.06
2023-04-24T04:44:30.618Z,95.95
2023-04-24T04:47:00.108Z,95.79
2023-04-24T04:49:29.772Z,94.82
2023-04-24T04:51:57.479Z,96.60
2023-04-24T04:54:24.970Z,93.38
2023-04-24T04:56:52.578Z,96.15
2023-04-24T04:59:20.101Z,92.08
2023-04-24T05:01:47.539Z,88.30
2023-04-24T05:04:15.132Z,87.00
2023-04-24T05:06:44.040Z,85.74
2023-04-24T05:09:11.475Z,84.35
2023-04-24T05:11:38.816Z,82.35
2023-04-24T05:14:06.262Z,82.00
2023-04-24T05:16:33.738Z,82.59
2023-04-24T05:19:01.682Z,82.35
2023-04-24T05:21:29.078Z,81.71
2023-04-24T05:23:57.766Z,78.93
2023-04-24T05:26:25.235Z,77.14
2023-04-24T05:28:52.624Z,77.71
2023-04-24T05:31:20.057Z,75.75
2023-04-24T05:33:47.460Z,75.65
2023-04-24T05:36:14.850Z,74.58
2023-04-24T05:38:42.254Z,75.46
2023-04-24T05:41:10.965Z,74.87
2023-04-24T05:43:38.327Z,73.32
2023-04-24T05:46:05.813Z,73.07
2023-04-24T05:48:33.254Z,74.27
2023-04-24T05:51:00.628Z,73.23
2023-04-24T05:53:28.038Z,72.25
2023-04-24T05:55:55.483Z,71.58
2023-04-24T05:58:24.144Z,72.57
2023-04-24T06:00:51.533Z,72.51
2023-04-24T06:03:19.091Z,72.45
2023-04-24T06:05:46.758Z,71.14
2023-04-24T06:08:14.227Z,68.97
2023-04-24T06:10:42.210Z,69.63
2023-04-24T06:13:09.781Z,67.05
2023-04-24T06:15:39.155Z,65.49
2023-04-24T06:18:06.718Z,65.79
2023-04-24T06:20:34.184Z,64.23
2023-04-24T06:23:01.644Z,61.98
2023-04-24T06:25:29.928Z,66.20
2023-04-24T06:27:57.810Z,65.11
2023-04-24T06:30:25.646Z,63.91
2023-04-24T06:32:55.738Z,63.11
2023-04-24T06:35:23.290Z,64.38
2023-04-24T06:37:51.188Z,64.71
2023-04-24T06:40:19.501Z,63.67
2023-04-24T06:42:46.996Z,65.08
2023-04-24T06:45:14.371Z,64.29
2023-04-24T06:47:41.795Z,63.50
2023-04-24T06:50:12.376Z,63.09
2023-04-24T06:52:39.829Z,64.11
2023-04-24T06:55:08.456Z,61.55
2023-04-24T06:57:35.978Z,61.25
2023-04-24T07:00:04.398Z,57.84
2023-04-24T07:02:31.914Z,56.97
2023-04-24T07:04:59.348Z,58.30
2023-04-24T07:07:28.589Z,58.42
2023-04-24T07:09:57.292Z,60.75
2023-04-24T07:12:24.784Z,61.41
2023-04-24T07:14:52.635Z,60.12
2023-04-24T07:17:20.070Z,58.52
2023-04-24T07:19:47.528Z,59.62
2023-04-24T07:22:17.788Z,55.74
2023-04-24T07:24:46.833Z,57.26
2023-04-24T07:27:15.928Z,58.43
2023-04-24T07:29:43.922Z,56.73
2023-04-24T07:32:11.921Z,55.99
2023-04-24T07:34:39.353Z,57.02
2023-04-24T07:37:06.938Z,59.14
2023-04-24T07:39:34.350Z,58.28
2023-04-24T07:42:03.255Z,58.47
2023-04-24T07:44:30.980Z,56.80
2023-04-24T07:46:58.536Z,59.50
2023-04-24T07:49:26.015Z,59.40
2023-04-24T07:51:53.412Z,59.75
2023-04-24T07:54:21.033Z,60.15
2023-04-24T07:56:48.461Z,57.17
2023-04-24T07:59:17.204Z,55.07
2023-04-24T08:01:44.589Z,56.40
2023-04-24T08:04:12.073Z,55.72
2023-04-24T08:06:39.617Z,55.54
2023-04-24T08:09:06.995Z,54.38
2023-04-24T08:11:34.458Z,55.32
2023-04-24T08:14:02.052Z,53.18
2023-04-24T08:16:30.820Z,54.65
2023-04-24T08:18:58.309Z,54.08
2023-04-24T08:21:27.285Z,52.93
2023-04-24T08:23:54.872Z,52.94
2023-04-24T08:26:22.255Z,52.70
2023-04-24T08:28:49.658Z,57.90
2023-04-24T08:31:17.108Z,56.87
2023-04-24T08:33:46.806Z,53.67
2023-04-24T08:36:14.415Z,52.97
2023-04-24T08:38:43.130Z,53.07
2023-04-24T08:41:11.486Z,54.34
2023-04-24T08:43:39.257Z,53.64
2023-04-24T08:46:11.584Z,54.31
2023-04-24T08:48:40.127Z,55.59
2023-04-24T08:51:10.583Z,55.49
2023-04-24T08:53:38.433Z,53.56
2023-04-24T08:56:06.127Z,55.75
2023-04-24T08:58:33.675Z,55.67
2023-04-24T09:01:01.614Z,54.55
2023-04-24T09:03:30.702Z,53.01
2023-04-24T09:05:59.768Z,51.82
2023-04-24T09:08:30.151Z,50.03
2023-04-24T09:10:59.161Z,51.71
2023-04-24T09:13:26.789Z,49.85
2023-04-24T09:15:55.060Z,51.44
2023-04-24T09:18:22.470Z,50.66
2023-04-24T09:20:59.655Z,50.88
2023-04-24T09:23:30.052Z,50.15
2023-04-24T09:25:58.248Z,49.47
2023-04-24T09:28:33.465Z,50.94
2023-04-24T09:31:05.433Z,50.63
2023-04-24T09:33:32.923Z,49.65
2023-04-24T09:36:00.503Z,48.88
2023-04-24T09:38:37.464Z,49.31
2023-04-24T09:41:07.346Z,49.22
2023-04-24T09:43:35.193Z,48.57
2023-04-24T09:46:09.581Z,51.79
2023-04-24T09:48:38.806Z,51.27
2023-04-24T09:51:11.428Z,52.42
2023-04-24T09:53:41.214Z,51.41
2023-04-24T09:56:10.043Z,51.15
2023-04-24T09:58:38.029Z,51.74
2023-04-24T10:01:06.361Z,50.06
2023-04-24T10:03:34.630Z,51.10
2023-04-24T10:06:02.442Z,50.37
2023-04-24T10:08:35.352Z,50.29
2023-04-24T10:11:04.117Z,50.48
2023-04-24T10:13:32.300Z,50.66
2023-04-24T10:16:01.035Z,51.30
2023-04-24T10:18:29.072Z,50.76
2023-04-24T10:20:57.050Z,49.21
2023-04-24T10:23:25.060Z,50.42
2023-04-24T10:25:52.864Z,50.17
2023-04-24T10:28:22.743Z,50.30
2023-04-24T10:30:51.405Z,49.81
2023-04-24T10:33:19.300Z,48.78
2023-04-24T10:35:50.621Z,49.27
2023-04-24T10:38:25.032Z,48.35
2023-04-24T10:40:52.496Z,45.76
2023-04-24T10:43:22.004Z,45.40
2023-04-24T10:46:02.990Z,46.01
2023-04-24T10:48:30.935Z,47.38
2023-04-24T10:50:58.359Z,48.77
2023-04-24T10:53:28.871Z,48.43
2023-04-24T10:56:00.958Z,49.99
2023-04-24T10:58:41.141Z,50.47
2023-04-24T11:01:09.069Z,50.19
2023-04-24T11:03:38.478Z,50.53
2023-04-24T11:06:08.079Z,49.41
2023-04-24T11:08:44.195Z,50.74
2023-04-24T11:11:13.763Z,51.30
2023-04-24T11:14:05.154Z,52.32
2023-04-24T11:16:35.118Z,53.62
2023-04-24T11:19:04.179Z,53.44
2023-04-24T11:21:42.113Z,53.36
2023-04-24T11:24:26.386Z,52.10
2023-04-24T11:26:56.262Z,53.25
2023-04-24T11:29:25.854Z,54.37
2023-04-24T11:31:53.429Z,53.38
2023-04-24T11:34:20.921Z,53.71
2023-04-24T11:36:49.040Z,52.44
2023-04-24T11:39:17.066Z,51.72
2023-04-24T11:41:44.541Z,54.63
2023-04-24T11:44:12.585Z,52.33
2023-04-24T11:46:41.506Z,49.92
2023-04-24T11:49:09.394Z,50.88
2023-04-24T11:51:50.970Z,50.63
2023-04-24T11:54:20.371Z,50.70
2023-04-24T11:56:48.578Z,50.80
2023-04-24T11:59:16.043Z,51.09
2023-04-24T12:01:48.183Z,51.97
2023-04-24T12:04:16.943Z,48.60
2023-04-24T12:07:02.236Z,50.10
2023-04-24T12:09:29.754Z,49.74
2023-04-24T12:11:57.977Z,49.39
2023-04-24T12:14:25.664Z,49.71
2023-04-24T12:16:54.519Z,50.78
2023-04-24T12:19:22.668Z,51.96
2023-04-24T12:22:02.181Z,50.76
2023-04-24T12:24:29.655Z,48.78
2023-04-24T12:26:57.348Z,47.51
2023-04-24T12:29:25.521Z,46.31
2023-04-24T12:31:54.766Z,46.69
2023-04-24T12:34:23.122Z,45.43
2023-04-24T12:36:50.529Z,45.86
2023-04-24T12:39:18.432Z,43.59
2023-04-24T12:41:57.033Z,43.68
2023-04-24T12:44:31.256Z,42.80
2023-04-24T12:47:00.115Z,44.18
2023-04-24T12:49:27.718Z,43.80
2023-04-24T12:51:55.623Z,44.48
2023-04-24T12:54:23.020Z,44.81
2023-04-24T12:56:50.614Z,43.69
2023-04-24T12:59:18.128Z,45.37
2023-04-24T13:01:45.929Z,46.13
2023-04-24T13:04:14.961Z,45.43
2023-04-24T13:06:42.410Z,45.33
2023-04-24T13:09:10.762Z,44.97
2023-04-24T13:11:38.146Z,43.31
2023-04-24T13:14:05.571Z,42.34
2023-04-24T13:16:32.977Z,41.99
2023-04-24T13:19:00.461Z,41.11
2023-04-24T13:21:29.204Z,40.31
2023-04-24T13:23:57.045Z,39.27
2023-04-24T13:26:24.573Z,38.88
2023-04-24T13:28:52.061Z,39.41
2023-04-24T13:31:19.545Z,39.06
2023-04-24T13:33:46.951Z,39.24
2023-04-24T13:36:14.404Z,39.44
2023-04-24T13:38:43.122Z,40.38
2023-04-24T13:41:10.694Z,40.86
2023-04-24T13:43:38.198Z,41.30
2023-04-24T13:46:05.909Z,42.21
2023-04-24T13:48:33.440Z,38.90
2023-04-24T13:51:00.912Z,39.54
2023-04-24T13:53:28.613Z,40.07
2023-04-24T13:55:57.394Z,40.58
2023-04-24T13:58:24.759Z,41.37
2023-04-24T14:00:52.369Z,40.52
2023-04-24T14:03:19.884Z,41.04
2023-04-24T14:05:47.371Z,40.16
2023-04-24T14:08:14.807Z,39.67
2023-04-24T14:10:42.199Z,38.93
2023-04-24T14:13:11.041Z,41.08
2023-04-24T14:15:38.574Z,39.16
2023-04-24T14:18:06.592Z,39.47
2023-04-24T14:20:34.001Z,40.21
2023-04-24T14:23:01.422Z,39.30
2023-04-24T14:25:29.043Z,38.51
2023-04-24T14:27:56.461Z,39.60
2023-04-24T14:30:25.306Z,38.75
2023-04-24T14:32:52.851Z,39.34
2023-04-24T14:35:20.267Z,39.32
2023-04-24T14:37:49.295Z,39.31
2023-04-24T14:42:48.312Z,40.26
2023-04-24T14:45:15.917Z,40.13
2023-04-24T14:47:44.729Z,39.84
2023-04-24T14:50:13.412Z,39.97
2023-04-24T14:52:41.199Z,39.90
2023-04-24T14:55:09.429Z,39.30
2023-04-24T14:57:37.824Z,39.74
2023-04-24T15:00:07.120Z,39.60
2023-04-24T15:02:35.073Z,40.39
2023-04-24T15:05:05.295Z,41.19
2023-04-24T15:07:33.986Z,40.94
2023-04-24T15:10:01.391Z,38.62
2023-04-24T15:12:29.571Z,38.55
2023-04-24T15:14:57.464Z,40.85
2023-04-24T15:17:24.939Z,40.62
2023-04-24T15:19:52.318Z,41.38
2023-04-24T15:22:21.380Z,40.24
2023-04-24T15:24:48.863Z,38.46
2023-04-24T15:27:16.322Z,39.59
2023-04-24T15:29:43.862Z,39.97
2023-04-24T15:32:11.381Z,39.34
2023-04-24T15:34:38.824Z,39.66
2023-04-24T15:37:06.272Z,41.33
2023-04-24T15:39:35.077Z,40.62
2023-04-24T15:42:02.571Z,40.86
2023-04-24T15:44:30.085Z,41.56
2023-04-24T15:46:57.480Z,41.97
2023-04-24T15:49:24.945Z,41.91
2023-04-24T15:51:52.400Z,42.30
2023-04-24T15:54:19.833Z,42.31
2023-04-24T15:56:48.554Z,41.62
2023-04-24T15:59:16.559Z,42.60
2023-04-24T16:01:44.125Z,42.88
2023-04-24T16:04:11.883Z,43.69
2023-04-24T16:06:39.655Z,43.91
2023-04-24T16:09:08.513Z,44.51
2023-04-24T16:11:37.638Z,43.99
2023-04-24T16:14:10.721Z,44.69
2023-04-24T16:16:38.429Z,45.54
2023-04-24T16:19:06.890Z,45.10
2023-04-24T16:21:34.861Z,44.87
2023-04-24T16:24:02.273Z,45.40
2023-04-24T16:26:29.795Z,45.09
2023-04-24T16:28:57.273Z,45.96
2023-04-24T16:31:26.912Z,45.58
2023-04-24T16:33:54.342Z,44.94
2023-04-24T16:36:22.435Z,44.60
2023-04-24T16:38:50.840Z,45.78
2023-04-24T16:41:18.864Z,45.23
2023-04-24T16:43:46.269Z,45.76
2023-04-24T16:46:14.212Z,46.65
2023-04-24T16:48:44.370Z,46.76
2023-04-24T16:51:11.850Z,46.11
2023-04-24T16:53:39.385Z,46.45
2023-04-24T16:56:07.096Z,46.79
2023-04-24T16:58:34.626Z,47.13
2023-04-24T17:01:02.070Z,47.48
2023-04-24T17:03:29.526Z,47.56
2023-04-24T17:05:58.375Z,48.69
2023-04-24T17:08:27.724Z,47.73
2023-04-24T17:10:55.309Z,48.45
2023-04-24T17:13:22.713Z,48.38
2023-04-24T17:15:50.125Z,47.69
2023-04-24T17:18:19.380Z,48.31
2023-04-24T17:20:46.948Z,48.40
2023-04-24T17:23:17.849Z,49.32
2023-04-24T17:25:48.345Z,48.96
2023-04-24T17:28:25.872Z,50.26
2023-04-24T17:30:55.426Z,49.67
2023-04-24T17:33:23.316Z,51.48
2023-04-24T17:35:51.288Z,51.26
2023-04-24T17:38:20.154Z,51.74
2023-04-24T17:40:47.560Z,52.47
2023-04-24T17:43:17.908Z,51.87
2023-04-24T17:45:46.016Z,52.77
2023-04-24T17:48:14.059Z,53.18
2023-04-24T17:50:42.137Z,51.88
2023-04-24T17:53:10.725Z,52.45
2023-04-24T17:55:39.999Z,53.42
2023-04-24T17:58:07.592Z,52.53
2023-04-24T18:00:35.305Z,53.19
2023-04-24T18:03:04.053Z,53.77
2023-04-24T18:05:32.888Z,53.55
2023-04-24T18:08:01.532Z,54.10
2023-04-24T18:10:31.388Z,54.45
2023-04-24T18:13:00.418Z,53.74
2023-04-24T18:15:27.778Z,54.80
2023-04-24T18:17:55.249Z,53.77
2023-04-24T18:20:22.662Z,53.86
2023-04-24T18:22:50.122Z,54.71
2023-04-24T18:25:17.754Z,54.52
2023-04-24T18:27:45.177Z,54.38
2023-04-24T18:30:15.006Z,54.40
2023-04-24T18:32:42.895Z,54.68
2023-04-24T18:35:11.391Z,54.87
2023-04-24T18:37:40.420Z,54.92
2023-04-24T18:40:10.233Z,53.86
2023-04-24T18:42:37.708Z,55.42
2023-04-24T18:45:05.781Z,56.05
2023-04-24T18:47:34.507Z,55.51
2023-04-24T18:50:01.896Z,55.31
2023-04-24T18:52:29.392Z,55.26
2023-04-24T18:54:57.115Z,55.31
2023-04-24T18:57:24.591Z,54.99
2023-04-24T18:59:51.958Z,56.05
2023-04-24T19:02:19.631Z,55.54
2023-04-24T19:04:48.444Z,54.98
2023-04-24T19:07:15.850Z,55.30
2023-04-24T19:09:43.296Z,55.37
2023-04-24T19:12:10.689Z,55.51
2023-04-24T19:14:38.077Z,55.37
2023-04-24T19:17:05.692Z,54.77
2023-04-24T19:19:33.383Z,54.74
2023-04-24T19:22:02.131Z,55.58
2023-04-24T19:24:29.683Z,56.33
2023-04-24T19:26:58.080Z,55.63
2023-04-24T19:29:27.337Z,55.73
2023-04-24T19:31:55.546Z,55.75
2023-04-24T19:34:22.997Z,56.83
2023-04-24T19:36:50.879Z,56.32
2023-04-24T19:39:19.893Z,56.63
2023-04-24T19:41:47.249Z,56.89
2023-04-24T19:44:15.546Z,57.52
2023-04-24T19:46:43.032Z,58.20
2023-04-24T19:49:10.559Z,58.38
2023-04-24T19:51:38.604Z,58.53
2023-04-24T19:54:06.676Z,57.41
2023-04-24T19:56:35.519Z,58.37
2023-04-24T19:59:02.936Z,57.85
2023-04-24T20:01:30.591Z,59.11
2023-04-24T20:03:58.433Z,59.12
2023-04-24T20:06:26.096Z,59.40
2023-04-24T20:08:53.525Z,59.61
2023-04-24T20:11:20.954Z,60.09
2023-04-24T20:13:49.693Z,60.32
2023-04-24T20:16:17.243Z,60.01
2023-04-24T20:18:44.698Z,59.72
2023-04-24T20:21:12.087Z,60.52
2023-04-24T20:23:39.533Z,59.67
2023-04-24T20:26:08.352Z,60.95
2023-04-24T20:28:35.876Z,60.67
2023-04-24T20:31:04.977Z,60.66
2023-04-24T20:33:32.423Z,62.00
2023-04-24T20:35:59.796Z,61.62
2023-04-24T20:38:27.241Z,61.36
2023-04-24T20:40:58.104Z,61.74
2023-04-24T20:43:28.673Z,62.01
2023-04-24T20:45:57.833Z,61.55
2023-04-24T20:48:27.147Z,61.91
2023-04-24T20:50:54.665Z,62.13
2023-04-24T20:53:22.345Z,63.06
2023-04-24T20:55:49.858Z,62.68
2023-04-24T20:58:18.336Z,62.92
2023-04-24T21:00:46.803Z,62.22
2023-04-24T21:03:14.698Z,62.19
2023-04-24T21:05:43.503Z,62.64
2023-04-24T21:08:10.930Z,62.58
2023-04-24T21:10:38.333Z,63.83
2023-04-24T21:13:05.751Z,63.46
2023-04-24T21:15:34.249Z,64.73
2023-04-24T21:18:01.760Z,64.68
2023-04-24T21:20:29.215Z,63.85
2023-04-24T21:22:58.017Z,63.72
2023-04-24T21:25:26.100Z,63.41
2023-04-24T21:27:54.037Z,62.64
2023-04-24T21:30:22.544Z,63.37
2023-04-24T21:32:51.910Z,64.17
2023-04-24T21:35:19.808Z,64.36
2023-04-24T21:37:47.195Z,64.08
2023-04-24T21:40:16.268Z,64.70
2023-04-24T21:42:43.714Z,63.87
2023-04-24T21:45:12.200Z,64.35
2023-04-24T21:47:39.652Z,64.11
2023-04-24T21:50:08.354Z,64.95
2023-04-24T21:52:35.945Z,63.98
2023-04-24T21:55:03.394Z,64.81
2023-04-24T21:57:32.215Z,65.81
2023-04-24T22:00:00.060Z,65.42
2023-04-24T22:02:27.721Z,64.83
2023-04-24T22:04:56.225Z,65.33
2023-04-24T22:07:24.229Z,65.10
2023-04-24T22:09:51.686Z,65.05
2023-04-24T22:12:19.404Z,64.77
2023-04-24T22:14:48.170Z,64.93
2023-04-24T22:17:17.288Z,64.52
2023-04-24T22:19:44.698Z,64.94
2023-04-24T22:22:12.167Z,64.55
2023-04-24T22:24:39.557Z,64.85
2023-04-24T22:27:06.943Z,65.60
2023-04-24T22:29:34.330Z,65.96
2023-04-24T22:32:03.071Z,67.10
2023-04-24T22:34:30.520Z,66.39
2023-04-24T22:36:57.890Z,66.79
2023-04-24T22:39:25.541Z,66.74
2023-04-24T22:41:53.365Z,67.14
2023-04-24T22:44:21.034Z,67.18
2023-04-24T22:46:48.498Z,67.73
2023-04-24T22:49:17.257Z,67.20
2023-04-24T22:51:45.308Z,68.42
2023-04-24T22:54:12.895Z,68.29
2023-04-24T22:56:40.296Z,67.66
2023-04-24T22:59:07.678Z,67.68
2023-04-24T23:01:35.055Z,68.28
2023-04-24T23:04:02.615Z,68.44
2023-04-24T23:06:32.066Z,67.72
2023-04-24T23:08:59.465Z,67.84
2023-04-24T23:11:26.841Z,68.80
2023-04-24T23:13:54.367Z,68.67
2023-04-24T23:16:22.469Z,69.13
2023-04-24T23:18:49.891Z,70.17
2023-04-24T23:21:17.343Z,70.25
2023-04-24T23:23:46.051Z,70.09
2023-04-24T23:26:13.891Z,68.94
2023-04-24T23:28:41.694Z,68.99
2023-04-24T23:31:09.100Z,69.78
2023-04-24T23:33:36.462Z,69.91
2023-04-24T23:36:03.989Z,69.33
2023-04-24T23:38:42.861Z,69.75
2023-04-24T23:41:18.217Z,69.54
2023-04-24T23:43:45.608Z,69.59
2023-04-24T23:46:13.276Z,68.77
2023-04-24T23:48:40.796Z,69.25
2023-04-24T23:51:08.391Z,69.18
2023-04-24T23:53:35.943Z,69.87
2023-04-24T23:56:03.426Z,70.17
2023-04-24T23:58:32.120Z,69.77
